TimeMST,TemperatureF,Dew PointF,Humidity,Sea Level PressureIn,VisibilityMPH,Wind Direction,Wind SpeedMPH,Gust SpeedMPH,PrecipitationIn,Events,Conditions,WindDirDegrees,DateUTC
12:53 AM,28.0,25.0,88,30.32,10.0,WNW,9.2,-,N/A,,Mostly Cloudy,290,2012-11-15 07:53:00
1:53 AM,26.1,23.0,88,30.33,10.0,WNW,5.8,-,N/A,,Clear,300,2012-11-15 08:53:00
2:53 AM,28.9,25.0,85,30.34,10.0,WSW,3.5,-,N/A,,Overcast,240,2012-11-15 09:53:00
3:53 AM,25.0,21.9,88,30.35,10.0,WSW,3.5,-,N/A,,Mostly Cloudy,250,2012-11-15 10:53:00
4:53 AM,25.0,23.0,92,30.36,10.0,Calm,Calm,-,N/A,,Clear,0,2012-11-15 11:53:00
5:53 AM,23.0,21.0,92,30.38,10.0,SE,8.1,-,N/A,,Clear,140,2012-11-15 12:53:00
6:53 AM,24.1,21.9,91,30.38,10.0,SSE,8.1,-,N/A,,Clear,150,2012-11-15 13:53:00
7:53 AM,24.1,21.9,91,30.39,10.0,SSE,10.4,-,N/A,,Clear,160,2012-11-15 14:53:00
8:53 AM,27.0,25.0,92,30.39,10.0,SSE,10.4,-,N/A,,Clear,150,2012-11-15 15:53:00
9:53 AM,30.9,26.1,82,30.39,10.0,SE,9.2,-,N/A,,Clear,130,2012-11-15 16:53:00
10:53 AM,35.1,28.0,76,30.37,10.0,SE,9.2,-,N/A,,Clear,140,2012-11-15 17:53:00
11:53 AM,37.0,28.9,73,30.33,10.0,SSE,11.5,-,N/A,,Clear,150,2012-11-15 18:53:00
12:53 PM,39.9,30.9,70,30.31,10.0,SSE,12.7,-,N/A,,Clear,160,2012-11-15 19:53:00
1:53 PM,42.1,32.0,67,30.29,10.0,SSE,12.7,-,N/A,,Clear,160,2012-11-15 20:53:00
2:53 PM,42.1,33.1,70,30.27,10.0,SSE,8.1,-,N/A,,Clear,160,2012-11-15 21:53:00
3:53 PM,41.0,33.1,73,30.27,10.0,SSE,6.9,-,N/A,,Clear,160,2012-11-15 22:53:00
4:53 PM,39.0,32.0,76,30.25,10.0,South,4.6,-,N/A,,Clear,170,2012-11-15 23:53:00
5:53 PM,39.0,30.9,73,30.24,10.0,SSE,8.1,-,N/A,,Clear,160,2012-11-16 00:53:00
6:53 PM,36.0,30.0,79,30.24,10.0,SSE,8.1,-,N/A,,Clear,160,2012-11-16 01:53:00
7:53 PM,35.1,28.9,78,30.22,10.0,SSE,9.2,-,N/A,,Clear,150,2012-11-16 02:53:00
8:53 PM,35.1,28.0,76,30.21,10.0,SSE,6.9,-,N/A,,Clear,160,2012-11-16 03:53:00
9:53 PM,35.1,28.0,76,30.18,10.0,SSE,12.7,-,N/A,,Clear,150,2012-11-16 04:53:00
10:53 PM,34.0,28.0,79,30.15,10.0,SSE,12.7,-,N/A,,Clear,150,2012-11-16 05:53:00
11:53 PM,33.1,27.0,78,30.14,10.0,SSE,9.2,-,N/A,,Clear,160,2012-11-16 06:53:00